Time;durP1;ratioP1;P1;durP2;ratioP2;P2;SDS_P1;SDS_P2;PMS_P1;PMS_P2;Temp;Humidity;BMP_temperature;BMP_pressure;BME280_temperature;BME280_humidity;BME280_pressure;Samples;Min_cycle;Max_cycle;Signal;HPM_P1;HPM_P2
2023/03/05 00:07:55;;;;;;;1999.90;999.90;;;5.20;99.90;;;;;;6618731;88;20662;-77
2023/03/05 00:17:55;;;;;;;1999.90;999.90;;;5.10;99.90;;;;;;6614771;89;20198;-78
2023/03/05 00:27:56;;;;;;;1999.90;999.90;;;5.20;99.90;;;;;;6616231;89;20244;-77
2023/03/05 00:37:56;;;;;;;1999.90;999.90;;;5.10;99.90;;;;;;6618813;89;20235;-77
2023/03/05 00:47:57;;;;;;;1999.90;999.90;;;5.00;99.90;;;;;;6615493;89;20636;-77
2023/03/05 00:57:58;;;;;;;1999.90;999.90;;;4.80;99.90;;;;;;6611667;89;20213;-77
2023/03/05 01:07:59;;;;;;;1999.90;999.90;;;4.80;99.90;;;;;;6641373;88;20403;-77
2023/03/05 01:17:59;;;;;;;1999.90;999.90;;;4.70;99.90;;;;;;6606122;88;20260;-77
2023/03/05 01:28:00;;;;;;;1999.90;999.90;;;4.70;99.90;;;;;;6604142;88;20178;-78
2023/03/05 01:38:01;;;;;;;1999.90;999.90;;;4.70;99.90;;;;;;6616331;88;20230;-76
2023/03/05 01:48:02;;;;;;;1999.90;999.90;;;4.70;99.90;;;;;;6624465;89;20219;-76
2023/03/05 01:58:07;;;;;;;1999.90;999.90;;;4.60;99.90;;;;;;6612655;89;20212;-76
2023/03/05 02:08:10;;;;;;;1999.90;999.90;;;4.60;99.90;;;;;;6612615;89;20213;-77
2023/03/05 02:18:11;;;;;;;1999.90;999.90;;;4.60;99.90;;;;;;6611422;89;20621;-76
2023/03/05 02:28:21;;;;;;;1999.90;999.90;;;4.60;99.90;;;;;;6610922;89;20217;-77
2023/03/05 02:38:22;;;;;;;1999.90;999.90;;;4.60;99.90;;;;;;6607449;89;20613;-78
2023/03/05 02:48:22;;;;;;;1999.90;999.90;;;4.50;99.90;;;;;;6610502;89;20204;-77
2023/03/05 02:58:23;;;;;;;1999.90;999.90;;;4.60;99.90;;;;;;6611582;89;20190;-76
2023/03/05 03:08:23;;;;;;;1999.90;999.90;;;4.50;99.90;;;;;;6615434;89;20211;-76
2023/03/05 03:18:24;;;;;;;1999.90;999.90;;;4.30;99.90;;;;;;6617060;89;20638;-76
2023/03/05 03:28:25;;;;;;;1999.90;999.90;;;4.40;99.90;;;;;;6616947;89;20289;-77
2023/03/05 03:38:25;;;;;;;1999.90;999.90;;;4.40;99.90;;;;;;6616718;89;20332;-76
2023/03/05 03:48:26;;;;;;;1999.90;999.90;;;4.40;99.90;;;;;;6614182;89;20352;-77
2023/03/05 03:58:29;;;;;;;1999.90;999.90;;;4.30;99.90;;;;;;6613438;89;20495;-77
2023/03/05 04:08:30;;;;;;;1999.90;999.90;;;4.30;99.90;;;;;;6612678;89;20739;-76
2023/03/05 04:18:30;;;;;;;1999.90;999.90;;;4.30;99.90;;;;;;6613574;89;20190;-78
2023/03/05 04:28:31;;;;;;;1999.90;999.90;;;4.20;99.90;;;;;;6613097;89;20249;-78
2023/03/05 04:38:32;;;;;;;1999.90;999.90;;;4.30;99.90;;;;;;6613075;89;20731;-77
2023/03/05 04:48:32;;;;;;;1999.90;999.90;;;4.30;99.90;;;;;;6615139;89;20215;-78
2023/03/05 04:58:33;;;;;;;1999.90;999.90;;;4.20;99.90;;;;;;6629076;89;20317;-77
2023/03/05 05:08:33;;;;;;;1999.90;999.90;;;4.20;99.90;;;;;;6629478;88;20207;-77
2023/03/05 05:18:34;;;;;;;1999.90;999.90;;;4.30;99.90;;;;;;6631981;89;20181;-79
2023/03/05 05:28:37;;;;;;;1999.90;999.90;;;4.20;99.90;;;;;;6628692;89;20208;-77
2023/03/05 05:38:37;;;;;;;1999.90;999.90;;;4.20;99.90;;;;;;6629376;89;20915;-77
2023/03/05 05:48:38;;;;;;;1999.90;999.90;;;4.10;99.90;;;;;;6628767;88;20220;-77
2023/03/05 05:58:40;;;;;;;1999.90;999.90;;;4.10;99.90;;;;;;6628962;88;20631;-77
2023/03/05 06:08:41;;;;;;;1999.90;999.90;;;4.10;99.90;;;;;;6628339;89;20212;-78
2023/03/05 06:18:42;;;;;;;1999.90;999.90;;;4.10;99.90;;;;;;6697109;88;20517;-77
2023/03/05 06:28:42;;;;;;;1999.90;999.90;;;4.00;99.90;;;;;;6699845;88;20659;-78
2023/03/05 06:38:43;;;;;;;1999.90;999.90;;;3.90;99.90;;;;;;6678059;88;20596;-77
2023/03/05 06:48:44;;;;;;;1999.90;999.90;;;3.90;99.90;;;;;;6613952;88;20210;-76
2023/03/05 06:58:47;;;;;;;1999.90;999.90;;;3.90;99.90;;;;;;6648088;88;20324;-76
2023/03/05 07:08:48;;;;;;;1999.90;999.90;;;4.00;99.90;;;;;;6630581;88;20219;-76
2023/03/05 07:18:49;;;;;;;1999.90;999.90;;;4.00;99.90;;;;;;6636223;88;20329;-76
2023/03/05 07:28:49;;;;;;;1999.90;999.90;;;4.10;99.90;;;;;;6629430;88;20237;-76
2023/03/05 07:38:50;;;;;;;1999.90;999.90;;;4.10;99.90;;;;;;6629855;88;20193;-77
2023/03/05 07:48:53;;;;;;;1999.90;999.90;;;4.30;99.90;;;;;;6604925;88;20372;-77
2023/03/05 07:58:53;;;;;;;1999.90;999.90;;;4.40;99.90;;;;;;6621277;88;20182;-76
2023/03/05 08:08:54;;;;;;;1999.90;999.90;;;4.50;99.90;;;;;;6627941;88;20741;-78
2023/03/05 08:18:56;;;;;;;1999.90;999.90;;;4.60;99.90;;;;;;6612266;89;20209;-76
2023/03/05 08:28:58;;;;;;;1999.90;999.90;;;4.90;99.90;;;;;;6600665;89;20213;-78
2023/03/05 08:38:58;;;;;;;1999.90;999.90;;;5.30;99.90;;;;;;6615135;89;20207;-78
2023/03/05 08:48:59;;;;;;;1999.90;999.90;;;5.60;99.90;;;;;;6631413;88;20191;-78
2023/03/05 08:59:01;;;;;;;1999.90;999.90;;;5.40;99.90;;;;;;6632887;88;20217;-80
2023/03/05 09:09:02;;;;;;;1999.90;999.90;;;5.30;99.90;;;;;;6625577;88;20211;-77
2023/03/05 09:19:02;;;;;;;1999.90;999.90;;;5.40;99.90;;;;;;6619897;88;20203;-76
2023/03/05 09:29:05;;;;;;;1999.90;999.90;;;5.40;99.90;;;;;;6616203;88;20186;-75
2023/03/05 09:39:06;;;;;;;1999.90;999.90;;;5.60;99.90;;;;;;6613288;88;20244;-76
2023/03/05 09:49:19;;;;;;;1999.90;999.90;;;5.60;99.90;;;;;;6613651;89;20200;-76
2023/03/05 09:59:38;;;;;;;1999.90;999.90;;;5.80;99.90;;;;;;6607569;88;20624;-76
2023/03/05 10:10:02;;;;;;;1999.90;999.90;;;5.90;99.90;;;;;;6609972;88;20414;-75
2023/03/05 10:20:15;;;;;;;1999.90;999.90;;;5.90;99.90;;;;;;6610638;88;20226;-76
2023/03/05 10:30:33;;;;;;;1999.90;999.90;;;6.40;99.90;;;;;;6618546;88;20203;-76
2023/03/05 10:40:43;;;;;;;1999.90;999.90;;;7.50;99.90;;;;;;6613082;88;20346;-76
2023/03/05 10:50:56;;;;;;;1999.90;999.90;;;7.00;99.90;;;;;;6612214;88;20182;-76
2023/03/05 11:01:01;;;;;;;1999.90;999.90;;;6.50;99.90;;;;;;6609150;88;20197;-76
2023/03/05 11:11:08;;;;;;;1999.90;999.90;;;6.30;99.90;;;;;;6611946;88;20179;-77
2023/03/05 11:21:10;;;;;;;;;;;6.20;99.90;;;;;;6612943;89;20190;-77
2023/03/05 11:31:20;;;;;;;1999.90;999.90;;;6.20;99.90;;;;;;6625199;88;20055;-76
2023/03/05 11:41:29;;;;;;;1999.90;999.90;;;6.10;99.90;;;;;;6619097;88;20333;-76
2023/03/05 11:51:49;;;;;;;1999.90;999.90;;;6.10;99.90;;;;;;6607684;88;20320;-76
2023/03/05 12:01:54;;;;;;;1999.90;999.90;;;5.80;99.90;;;;;;6612914;88;20219;-77
2023/03/05 12:12:11;;;;;;;1999.90;999.90;;;5.60;99.90;;;;;;6607623;89;20650;-76
2023/03/05 12:22:20;;;;;;;1999.90;999.90;;;5.70;99.90;;;;;;6610597;88;20720;-77
2023/03/05 12:32:21;;;;;;;1999.90;999.90;;;6.50;99.90;;;;;;6617595;88;20240;-77
2023/03/05 12:42:27;;;;;;;1999.90;999.90;;;6.70;99.90;;;;;;6623690;88;20201;-77
2023/03/05 12:52:33;;;;;;;1999.90;999.90;;;6.40;99.90;;;;;;6613517;89;20265;-77
2023/03/05 13:02:39;;;;;;;1999.90;999.90;;;6.70;99.90;;;;;;6615209;88;20185;-77
2023/03/05 13:12:48;;;;;;;;;;;6.60;99.90;;;;;;6613024;88;20201;-77
2023/03/05 13:23:21;;;;;;;1999.90;999.90;;;6.50;99.90;;;;;;6617356;88;21299;-76
2023/03/05 13:33:35;;;;;;;1999.90;999.90;;;6.40;99.90;;;;;;6617579;89;20657;-77
2023/03/05 13:43:42;;;;;;;1999.90;999.90;;;6.40;99.90;;;;;;6607426;88;20216;-78
2023/03/05 13:53:43;;;;;;;1999.90;999.90;;;6.30;99.90;;;;;;6607885;89;20239;-78
2023/03/05 14:03:47;;;;;;;1999.90;999.90;;;6.10;99.90;;;;;;6612291;89;20209;-76
2023/03/05 14:13:57;;;;;;;1999.90;999.90;;;6.20;99.90;;;;;;6617722;88;20302;-76
2023/03/05 14:24:11;;;;;;;1999.90;999.90;;;6.10;99.90;;;;;;6614168;89;20220;-77
2023/03/05 14:34:27;;;;;;;1999.90;999.90;;;6.10;99.90;;;;;;6617590;89;20613;-77
2023/03/05 14:44:27;;;;;;;1999.90;999.90;;;6.20;99.90;;;;;;6624710;88;20227;-76
2023/03/05 14:54:36;;;;;;;1999.90;999.90;;;6.30;99.90;;;;;;6654820;88;20190;-77
2023/03/05 15:04:39;;;;;;;1999.90;999.90;;;6.30;99.90;;;;;;6685580;88;20305;-77
2023/03/05 15:14:42;;;;;;;1999.90;999.90;;;6.30;99.90;;;;;;6631603;89;20206;-74
2023/03/05 15:24:43;;;;;;;1999.90;999.90;;;6.30;99.90;;;;;;6671710;88;20224;-76
2023/03/05 15:34:43;;;;;;;1999.90;999.90;;;6.30;99.90;;;;;;6695531;88;20709;-76
2023/03/05 15:44:44;;;;;;;1999.90;999.90;;;6.30;99.90;;;;;;6694971;88;20209;-75
2023/03/05 15:54:44;;;;;;;1999.90;999.90;;;6.20;99.90;;;;;;6657777;88;20201;-77
2023/03/05 16:04:45;;;;;;;1999.90;999.90;;;6.00;99.90;;;;;;6608619;89;20198;-76
2023/03/05 16:14:47;;;;;;;1999.90;999.90;;;5.80;99.90;;;;;;6611410;89;20185;-76
2023/03/05 16:24:47;;;;;;;1999.90;999.90;;;5.80;99.90;;;;;;6611678;89;20220;-75
2023/03/05 16:34:48;;;;;;;1999.90;999.90;;;5.60;99.90;;;;;;6608064;89;20225;-77
2023/03/05 16:44:49;;;;;;;1999.90;999.90;;;5.60;99.90;;;;;;6615149;89;21071;-77
2023/03/05 16:54:49;;;;;;;1999.90;999.90;;;5.60;99.90;;;;;;6683368;88;20201;-79
2023/03/05 17:04:50;;;;;;;1999.90;999.90;;;5.50;99.90;;;;;;6649212;88;20193;-78
2023/03/05 17:14:50;;;;;;;1999.90;999.90;;;5.40;99.90;;;;;;6628052;88;20640;-80
2023/03/05 17:24:52;;;;;;;1999.90;999.90;;;5.20;99.90;;;;;;6625306;89;20201;-80
2023/03/05 17:34:54;;;;;;;1999.90;999.90;;;5.00;99.90;;;;;;6618213;88;21082;-78
2023/03/05 17:44:56;;;;;;;1999.90;999.90;;;4.90;99.90;;;;;;6631299;88;20670;-78
2023/03/05 17:54:56;;;;;;;1999.90;999.90;;;4.90;99.90;;;;;;6616394;89;20308;-77
2023/03/05 18:04:57;;;;;;;1999.90;999.90;;;5.00;99.90;;;;;;6623381;88;20228;-79
2023/03/05 18:14:57;;;;;;;1999.90;999.90;;;5.10;99.90;;;;;;6618593;88;20318;-78
2023/03/05 18:24:58;;;;;;;1999.90;999.90;;;5.10;99.90;;;;;;6631735;89;20738;-81
2023/03/05 18:34:58;;;;;;;1999.90;999.90;;;5.00;99.90;;;;;;6635470;88;20679;-79
2023/03/05 18:44:59;;;;;;;1999.90;999.90;;;5.20;99.90;;;;;;6640222;88;20684;-80
2023/03/05 18:55:00;;;;;;;1999.90;999.90;;;5.00;99.90;;;;;;6639930;88;20202;-78
2023/03/05 19:05:01;;;;;;;1999.90;999.90;;;5.30;99.90;;;;;;6625490;89;20727;-79
2023/03/05 19:15:03;;;;;;;1999.90;999.90;;;5.10;99.90;;;;;;6643204;89;20512;-78
2023/03/05 19:25:05;;;;;;;1999.90;999.90;;;5.10;99.90;;;;;;6633159;89;20180;-77
2023/03/05 19:35:06;;;;;;;1999.90;999.90;;;4.80;99.90;;;;;;6691804;88;20187;-77
2023/03/05 19:45:07;;;;;;;1999.90;999.90;;;4.60;99.90;;;;;;6629994;88;20309;-78
2023/03/05 19:55:08;;;;;;;1999.90;999.90;;;4.50;99.90;;;;;;6623843;89;20216;-78
2023/03/05 20:05:09;;;;;;;1999.90;999.90;;;4.30;99.90;;;;;;6623058;89;20194;-79
2023/03/05 20:15:10;;;;;;;1999.90;999.90;;;4.10;99.90;;;;;;6623247;89;20253;-78
2023/03/05 20:25:12;;;;;;;1999.90;999.90;;;4.00;99.90;;;;;;6625156;89;20517;-78
2023/03/05 20:35:17;;;;;;;1999.90;999.90;;;3.90;99.90;;;;;;6626608;89;20548;-78
2023/03/05 20:45:17;;;;;;;1999.90;999.90;;;3.90;99.90;;;;;;6619019;89;20237;-78
2023/03/05 20:55:18;;;;;;;1999.90;999.90;;;3.80;99.90;;;;;;6623227;89;20209;-78
2023/03/05 21:05:20;;;;;;;1999.90;999.90;;;3.80;99.90;;;;;;6610594;89;20220;-78
2023/03/05 21:15:25;;;;;;;1999.90;999.90;;;3.60;99.90;;;;;;6622067;89;20717;-78
2023/03/05 21:25:28;;;;;;;1999.90;999.90;;;3.60;99.90;;;;;;6622912;88;20763;-77
2023/03/05 21:35:31;;;;;;;1999.90;999.90;;;3.60;99.90;;;;;;6631856;89;20224;-77
2023/03/05 21:45:32;;;;;;;1999.90;999.90;;;3.60;99.90;;;;;;6629631;88;20300;-77
2023/03/05 21:55:41;;;;;;;1999.90;999.90;;;3.60;99.90;;;;;;6633905;89;20695;-77
2023/03/05 22:05:43;;;;;;;1999.90;999.90;;;3.70;99.90;;;;;;6636630;89;20534;-77
2023/03/05 22:15:49;;;;;;;1999.90;999.90;;;3.70;99.90;;;;;;6638549;88;20212;-77
2023/03/05 22:26:01;;;;;;;1999.90;999.90;;;3.80;99.90;;;;;;6623350;88;20198;-79
2023/03/05 22:36:10;;;;;;;1999.90;999.90;;;3.70;99.90;;;;;;6618887;89;20562;-76
2023/03/05 22:46:15;;;;;;;1999.90;999.90;;;3.90;99.90;;;;;;6618969;89;20202;-78
2023/03/05 22:56:17;;;;;;;1999.90;999.90;;;3.90;99.90;;;;;;6618905;89;20196;-77
2023/03/05 23:06:18;;;;;;;1999.90;999.90;;;3.90;99.90;;;;;;6620527;89;20648;-78
2023/03/05 23:16:19;;;;;;;1999.90;999.90;;;3.90;99.90;;;;;;6629692;89;20218;-77
2023/03/05 23:26:19;;;;;;;1999.90;999.90;;;3.70;99.90;;;;;;6686524;88;20229;-77
2023/03/05 23:36:23;;;;;;;1999.90;999.90;;;3.70;99.90;;;;;;6649066;88;20250;-77
2023/03/05 23:46:24;;;;;;;1999.90;999.90;;;3.80;99.90;;;;;;6612560;89;20212;-76
2023/03/05 23:56:24;;;;;;;1999.90;999.90;;;3.70;99.90;;;;;;6618314;89;20701;-76
